sensor_id;sensor_type;location;lat;lon;timestamp;P1;durP1;ratioP1;P2;durP2;ratioP2
14187;SDS011;7175;51.978;5.330;2024-01-06T00:02:11;71.63;;;66.53;;
14187;SDS011;7175;51.978;5.330;2024-01-06T00:04:39;68.90;;;63.97;;
14187;SDS011;7175;51.978;5.330;2024-01-06T00:07:07;65.63;;;60.87;;
14187;SDS011;7175;51.978;5.330;2024-01-06T00:09:35;64.30;;;59.70;;
14187;SDS011;7175;51.978;5.330;2024-01-06T00:12:05;65.83;;;61.13;;
14187;SDS011;7175;51.978;5.330;2024-01-06T00:14:33;63.67;;;59.07;;
14187;SDS011;7175;51.978;5.330;2024-01-06T00:17:01;63.50;;;58.90;;
14187;SDS011;7175;51.978;5.330;2024-01-06T00:19:29;61.97;;;57.47;;
14187;SDS011;7175;51.978;5.330;2024-01-06T00:21:58;64.53;;;59.83;;
14187;SDS011;7175;51.978;5.330;2024-01-06T00:24:27;66.53;;;61.73;;
14187;SDS011;7175;51.978;5.330;2024-01-06T00:26:55;66.63;;;61.83;;
14187;SDS011;7175;51.978;5.330;2024-01-06T00:29:24;67.10;;;62.30;;
14187;SDS011;7175;51.978;5.330;2024-01-06T00:31:52;66.00;;;61.30;;
14187;SDS011;7175;51.978;5.330;2024-01-06T00:34:20;65.70;;;61.10;;
14187;SDS011;7175;51.978;5.330;2024-01-06T00:36:48;66.33;;;61.73;;
14187;SDS011;7175;51.978;5.330;2024-01-06T00:39:16;64.90;;;60.43;;
14187;SDS011;7175;51.978;5.330;2024-01-06T00:41:44;62.10;;;57.80;;
14187;SDS011;7175;51.978;5.330;2024-01-06T00:44:12;61.60;;;57.30;;
14187;SDS011;7175;51.978;5.330;2024-01-06T00:46:42;61.57;;;57.27;;
14187;SDS011;7175;51.978;5.330;2024-01-06T00:49:10;61.60;;;57.30;;
14187;SDS011;7175;51.978;5.330;2024-01-06T00:51:38;61.93;;;57.63;;
14187;SDS011;7175;51.978;5.330;2024-01-06T00:54:06;63.00;;;58.60;;
14187;SDS011;7175;51.978;5.330;2024-01-06T00:56:34;64.40;;;59.90;;
14187;SDS011;7175;51.978;5.330;2024-01-06T00:59:02;64.30;;;59.80;;
14187;SDS011;7175;51.978;5.330;2024-01-06T01:01:30;64.60;;;60.10;;
14187;SDS011;7175;51.978;5.330;2024-01-06T01:04:00;63.60;;;59.17;;
14187;SDS011;7175;51.978;5.330;2024-01-06T01:06:28;64.20;;;59.70;;
14187;SDS011;7175;51.978;5.330;2024-01-06T01:08:57;68.20;;;63.50;;
14187;SDS011;7175;51.978;5.330;2024-01-06T01:11:24;65.30;;;60.70;;
14187;SDS011;7175;51.978;5.330;2024-01-06T01:13:53;64.87;;;60.27;;
14187;SDS011;7175;51.978;5.330;2024-01-06T01:16:21;63.80;;;59.30;;
14187;SDS011;7175;51.978;5.330;2024-01-06T01:18:48;64.97;;;60.47;;
14187;SDS011;7175;51.978;5.330;2024-01-06T01:21:18;62.70;;;58.20;;
14187;SDS011;7175;51.978;5.330;2024-01-06T01:23:46;63.00;;;58.50;;
14187;SDS011;7175;51.978;5.330;2024-01-06T01:26:14;63.63;;;59.20;;
14187;SDS011;7175;51.978;5.330;2024-01-06T01:28:42;64.90;;;60.40;;
14187;SDS011;7175;51.978;5.330;2024-01-06T01:31:10;65.30;;;60.70;;
14187;SDS011;7175;51.978;5.330;2024-01-06T01:33:40;67.10;;;62.40;;
14187;SDS011;7175;51.978;5.330;2024-01-06T01:36:08;69.20;;;64.40;;
14187;SDS011;7175;51.978;5.330;2024-01-06T01:38:37;67.27;;;62.57;;
14187;SDS011;7175;51.978;5.330;2024-01-06T01:41:05;68.33;;;63.47;;
14187;SDS011;7175;51.978;5.330;2024-01-06T01:43:33;69.23;;;64.43;;
14187;SDS011;7175;51.978;5.330;2024-01-06T01:46:01;67.70;;;63.00;;
14187;SDS011;7175;51.978;5.330;2024-01-06T01:48:29;66.60;;;61.90;;
14187;SDS011;7175;51.978;5.330;2024-01-06T01:51:01;64.27;;;59.77;;
14187;SDS011;7175;51.978;5.330;2024-01-06T01:53:29;65.43;;;60.93;;
14187;SDS011;7175;51.978;5.330;2024-01-06T01:55:59;64.97;;;60.47;;
14187;SDS011;7175;51.978;5.330;2024-01-06T01:58:30;64.27;;;59.77;;
14187;SDS011;7175;51.978;5.330;2024-01-06T02:00:58;65.00;;;60.50;;
14187;SDS011;7175;51.978;5.330;2024-01-06T02:03:27;64.50;;;60.00;;
14187;SDS011;7175;51.978;5.330;2024-01-06T02:05:57;64.00;;;59.50;;
14187;SDS011;7175;51.978;5.330;2024-01-06T02:08:25;64.03;;;59.53;;
14187;SDS011;7175;51.978;5.330;2024-01-06T02:10:54;63.33;;;58.83;;
14187;SDS011;7175;51.978;5.330;2024-01-06T02:13:24;61.80;;;57.50;;
14187;SDS011;7175;51.978;5.330;2024-01-06T02:15:59;58.67;;;54.57;;
14187;SDS011;7175;51.978;5.330;2024-01-06T02:18:27;59.63;;;55.47;;
14187;SDS011;7175;51.978;5.330;2024-01-06T02:20:56;60.13;;;55.93;;
14187;SDS011;7175;51.978;5.330;2024-01-06T02:23:27;56.77;;;52.77;;
14187;SDS011;7175;51.978;5.330;2024-01-06T02:25:56;54.97;;;51.07;;
14187;SDS011;7175;51.978;5.330;2024-01-06T02:28:24;57.07;;;53.07;;
14187;SDS011;7175;51.978;5.330;2024-01-06T02:30:52;58.27;;;54.17;;
14187;SDS011;7175;51.978;5.330;2024-01-06T02:33:20;60.10;;;55.83;;
14187;SDS011;7175;51.978;5.330;2024-01-06T02:35:50;62.73;;;58.23;;
14187;SDS011;7175;51.978;5.330;2024-01-06T02:38:19;64.07;;;59.53;;
14187;SDS011;7175;51.978;5.330;2024-01-06T02:40:49;62.57;;;58.13;;
14187;SDS011;7175;51.978;5.330;2024-01-06T02:43:17;62.07;;;57.67;;
14187;SDS011;7175;51.978;5.330;2024-01-06T02:45:45;63.07;;;58.57;;
14187;SDS011;7175;51.978;5.330;2024-01-06T02:48:14;62.97;;;58.57;;
14187;SDS011;7175;51.978;5.330;2024-01-06T02:50:42;57.90;;;53.80;;
14187;SDS011;7175;51.978;5.330;2024-01-06T02:53:10;59.63;;;55.43;;
14187;SDS011;7175;51.978;5.330;2024-01-06T02:55:38;55.03;;;51.13;;
14187;SDS011;7175;51.978;5.330;2024-01-06T02:58:08;57.40;;;53.40;;
14187;SDS011;7175;51.978;5.330;2024-01-06T03:00:36;59.30;;;55.10;;
14187;SDS011;7175;51.978;5.330;2024-01-06T03:03:04;62.20;;;57.90;;
14187;SDS011;7175;51.978;5.330;2024-01-06T03:05:32;63.60;;;59.23;;
14187;SDS011;7175;51.978;5.330;2024-01-06T03:08:00;62.60;;;58.27;;
14187;SDS011;7175;51.978;5.330;2024-01-06T03:10:28;62.57;;;58.27;;
14187;SDS011;7175;51.978;5.330;2024-01-06T03:12:56;64.30;;;59.90;;
14187;SDS011;7175;51.978;5.330;2024-01-06T03:15:25;63.13;;;58.73;;
14187;SDS011;7175;51.978;5.330;2024-01-06T03:17:53;66.20;;;61.60;;
14187;SDS011;7175;51.978;5.330;2024-01-06T03:20:22;67.60;;;62.90;;
14187;SDS011;7175;51.978;5.330;2024-01-06T03:22:50;66.63;;;61.93;;
14187;SDS011;7175;51.978;5.330;2024-01-06T03:25:18;66.33;;;61.73;;
14187;SDS011;7175;51.978;5.330;2024-01-06T03:27:45;69.43;;;64.63;;
14187;SDS011;7175;51.978;5.330;2024-01-06T03:30:14;68.30;;;63.60;;
14187;SDS011;7175;51.978;5.330;2024-01-06T03:32:43;68.33;;;63.63;;
14187;SDS011;7175;51.978;5.330;2024-01-06T03:35:11;68.70;;;64.00;;
14187;SDS011;7175;51.978;5.330;2024-01-06T03:37:39;67.90;;;63.20;;
14187;SDS011;7175;51.978;5.330;2024-01-06T03:40:08;67.73;;;63.03;;
14187;SDS011;7175;51.978;5.330;2024-01-06T03:42:36;68.67;;;63.97;;
14187;SDS011;7175;51.978;5.330;2024-01-06T03:45:04;66.10;;;61.50;;
14187;SDS011;7175;51.978;5.330;2024-01-06T03:47:33;64.83;;;60.37;;
14187;SDS011;7175;51.978;5.330;2024-01-06T03:50:03;65.70;;;61.20;;
14187;SDS011;7175;51.978;5.330;2024-01-06T03:52:31;69.23;;;64.53;;
14187;SDS011;7175;51.978;5.330;2024-01-06T03:54:59;68.33;;;63.63;;
14187;SDS011;7175;51.978;5.330;2024-01-06T03:57:27;70.80;;;66.00;;
14187;SDS011;7175;51.978;5.330;2024-01-06T03:59:55;68.13;;;63.33;;
14187;SDS011;7175;51.978;5.330;2024-01-06T04:02:23;67.07;;;62.37;;
14187;SDS011;7175;51.978;5.330;2024-01-06T04:04:51;68.03;;;63.33;;
14187;SDS011;7175;51.978;5.330;2024-01-06T04:07:20;71.27;;;66.47;;
14187;SDS011;7175;51.978;5.330;2024-01-06T04:09:48;70.23;;;65.43;;
14187;SDS011;7175;51.978;5.330;2024-01-06T04:12:16;69.40;;;64.70;;
14187;SDS011;7175;51.978;5.330;2024-01-06T04:14:44;67.70;;;63.10;;
14187;SDS011;7175;51.978;5.330;2024-01-06T04:17:12;68.20;;;63.60;;
14187;SDS011;7175;51.978;5.330;2024-01-06T04:19:40;68.30;;;63.70;;
14187;SDS011;7175;51.978;5.330;2024-01-06T04:22:08;65.70;;;61.20;;
14187;SDS011;7175;51.978;5.330;2024-01-06T04:24:38;63.90;;;59.60;;
14187;SDS011;7175;51.978;5.330;2024-01-06T04:27:07;64.00;;;59.60;;
14187;SDS011;7175;51.978;5.330;2024-01-06T04:29:36;66.37;;;61.87;;
14187;SDS011;7175;51.978;5.330;2024-01-06T04:32:05;64.63;;;60.23;;
14187;SDS011;7175;51.978;5.330;2024-01-06T04:34:34;69.47;;;64.87;;
14187;SDS011;7175;51.978;5.330;2024-01-06T04:37:02;65.57;;;61.07;;
14187;SDS011;7175;51.978;5.330;2024-01-06T04:39:30;65.33;;;60.90;;
14187;SDS011;7175;51.978;5.330;2024-01-06T04:42:03;66.30;;;61.80;;
14187;SDS011;7175;51.978;5.330;2024-01-06T04:44:32;64.53;;;60.13;;
14187;SDS011;7175;51.978;5.330;2024-01-06T04:46:59;62.87;;;58.60;;
14187;SDS011;7175;51.978;5.330;2024-01-06T04:49:27;61.90;;;57.70;;
14187;SDS011;7175;51.978;5.330;2024-01-06T04:51:55;62.23;;;58.03;;
14187;SDS011;7175;51.978;5.330;2024-01-06T04:54:23;61.27;;;57.17;;
14187;SDS011;7175;51.978;5.330;2024-01-06T04:56:51;60.00;;;55.90;;
14187;SDS011;7175;51.978;5.330;2024-01-06T04:59:21;61.00;;;56.90;;
14187;SDS011;7175;51.978;5.330;2024-01-06T05:01:49;64.17;;;59.87;;
14187;SDS011;7175;51.978;5.330;2024-01-06T05:04:18;64.37;;;60.07;;
14187;SDS011;7175;51.978;5.330;2024-01-06T05:06:46;64.40;;;60.10;;
14187;SDS011;7175;51.978;5.330;2024-01-06T05:09:16;68.20;;;63.70;;
14187;SDS011;7175;51.978;5.330;2024-01-06T05:11:44;64.50;;;60.17;;
14187;SDS011;7175;51.978;5.330;2024-01-06T05:14:12;64.90;;;60.60;;
14187;SDS011;7175;51.978;5.330;2024-01-06T05:16:41;61.43;;;57.30;;
14187;SDS011;7175;51.978;5.330;2024-01-06T05:19:09;59.00;;;55.10;;
14187;SDS011;7175;51.978;5.330;2024-01-06T05:21:37;58.90;;;54.90;;
14187;SDS011;7175;51.978;5.330;2024-01-06T05:24:06;56.80;;;53.00;;
14187;SDS011;7175;51.978;5.330;2024-01-06T05:26:34;59.80;;;55.80;;
14187;SDS011;7175;51.978;5.330;2024-01-06T05:29:02;58.60;;;54.60;;
14187;SDS011;7175;51.978;5.330;2024-01-06T05:31:31;60.80;;;56.70;;
14187;SDS011;7175;51.978;5.330;2024-01-06T05:34:00;60.63;;;56.53;;
14187;SDS011;7175;51.978;5.330;2024-01-06T05:36:28;58.70;;;54.70;;
14187;SDS011;7175;51.978;5.330;2024-01-06T05:38:57;61.10;;;56.90;;
14187;SDS011;7175;51.978;5.330;2024-01-06T05:41:26;64.37;;;59.97;;
14187;SDS011;7175;51.978;5.330;2024-01-06T05:43:54;63.33;;;59.03;;
14187;SDS011;7175;51.978;5.330;2024-01-06T05:46:22;63.97;;;59.63;;
14187;SDS011;7175;51.978;5.330;2024-01-06T05:48:50;62.77;;;58.47;;
14187;SDS011;7175;51.978;5.330;2024-01-06T05:51:20;64.33;;;59.93;;
14187;SDS011;7175;51.978;5.330;2024-01-06T05:53:48;65.43;;;60.93;;
14187;SDS011;7175;51.978;5.330;2024-01-06T05:56:21;68.40;;;63.80;;
14187;SDS011;7175;51.978;5.330;2024-01-06T05:58:51;67.83;;;63.23;;
14187;SDS011;7175;51.978;5.330;2024-01-06T06:01:19;66.27;;;61.77;;
14187;SDS011;7175;51.978;5.330;2024-01-06T06:03:49;63.33;;;59.00;;
14187;SDS011;7175;51.978;5.330;2024-01-06T06:06:19;63.67;;;59.30;;
14187;SDS011;7175;51.978;5.330;2024-01-06T06:08:47;61.83;;;57.57;;
14187;SDS011;7175;51.978;5.330;2024-01-06T06:11:15;62.87;;;58.53;;
14187;SDS011;7175;51.978;5.330;2024-01-06T06:13:43;66.03;;;61.53;;
14187;SDS011;7175;51.978;5.330;2024-01-06T06:16:12;66.30;;;61.70;;
14187;SDS011;7175;51.978;5.330;2024-01-06T06:18:40;65.07;;;60.57;;
14187;SDS011;7175;51.978;5.330;2024-01-06T06:21:08;66.87;;;62.27;;
14187;SDS011;7175;51.978;5.330;2024-01-06T06:23:38;64.00;;;59.50;;
14187;SDS011;7175;51.978;5.330;2024-01-06T06:26:07;65.50;;;60.90;;
14187;SDS011;7175;51.978;5.330;2024-01-06T06:28:35;64.57;;;59.97;;
14187;SDS011;7175;51.978;5.330;2024-01-06T06:31:03;66.27;;;61.67;;
14187;SDS011;7175;51.978;5.330;2024-01-06T06:33:32;66.83;;;62.13;;
14187;SDS011;7175;51.978;5.330;2024-01-06T06:36:00;63.23;;;58.83;;
14187;SDS011;7175;51.978;5.330;2024-01-06T06:38:29;60.00;;;55.70;;
14187;SDS011;7175;51.978;5.330;2024-01-06T06:40:58;59.83;;;55.53;;
14187;SDS011;7175;51.978;5.330;2024-01-06T06:43:26;61.70;;;57.30;;
14187;SDS011;7175;51.978;5.330;2024-01-06T06:45:54;61.07;;;56.67;;
14187;SDS011;7175;51.978;5.330;2024-01-06T06:48:23;61.63;;;57.13;;
14187;SDS011;7175;51.978;5.330;2024-01-06T06:50:51;62.13;;;57.63;;
14187;SDS011;7175;51.978;5.330;2024-01-06T06:53:19;62.20;;;57.70;;
14187;SDS011;7175;51.978;5.330;2024-01-06T06:55:47;62.33;;;57.87;;
14187;SDS011;7175;51.978;5.330;2024-01-06T06:58:16;63.17;;;58.67;;
14187;SDS011;7175;51.978;5.330;2024-01-06T07:00:44;64.87;;;60.27;;
14187;SDS011;7175;51.978;5.330;2024-01-06T07:03:12;63.37;;;58.77;;
14187;SDS011;7175;51.978;5.330;2024-01-06T07:05:41;62.17;;;57.67;;
14187;SDS011;7175;51.978;5.330;2024-01-06T07:08:09;63.03;;;58.53;;
14187;SDS011;7175;51.978;5.330;2024-01-06T07:10:37;62.20;;;57.70;;
14187;SDS011;7175;51.978;5.330;2024-01-06T07:13:05;62.10;;;57.60;;
14187;SDS011;7175;51.978;5.330;2024-01-06T07:15:34;62.63;;;58.13;;
14187;SDS011;7175;51.978;5.330;2024-01-06T07:18:02;64.60;;;60.00;;
14187;SDS011;7175;51.978;5.330;2024-01-06T07:20:30;62.50;;;58.00;;
14187;SDS011;7175;51.978;5.330;2024-01-06T07:22:58;61.27;;;56.87;;
14187;SDS011;7175;51.978;5.330;2024-01-06T07:25:26;62.00;;;57.50;;
14187;SDS011;7175;51.978;5.330;2024-01-06T07:27:54;61.20;;;56.70;;
14187;SDS011;7175;51.978;5.330;2024-01-06T07:30:23;64.23;;;59.63;;
14187;SDS011;7175;51.978;5.330;2024-01-06T07:32:52;64.40;;;59.70;;
14187;SDS011;7175;51.978;5.330;2024-01-06T07:35:20;61.80;;;57.30;;
14187;SDS011;7175;51.978;5.330;2024-01-06T07:37:48;62.60;;;58.00;;
14187;SDS011;7175;51.978;5.330;2024-01-06T07:40:17;62.87;;;58.27;;
14187;SDS011;7175;51.978;5.330;2024-01-06T07:42:46;63.80;;;59.20;;
14187;SDS011;7175;51.978;5.330;2024-01-06T07:45:14;63.90;;;59.30;;
14187;SDS011;7175;51.978;5.330;2024-01-06T07:47:42;64.97;;;60.27;;
14187;SDS011;7175;51.978;5.330;2024-01-06T07:50:11;64.43;;;59.83;;
14187;SDS011;7175;51.978;5.330;2024-01-06T07:52:39;63.93;;;59.33;;
14187;SDS011;7175;51.978;5.330;2024-01-06T07:55:07;63.30;;;58.70;;
14187;SDS011;7175;51.978;5.330;2024-01-06T07:57:35;66.47;;;61.77;;
14187;SDS011;7175;51.978;5.330;2024-01-06T08:00:04;65.50;;;60.77;;
14187;SDS011;7175;51.978;5.330;2024-01-06T08:02:33;60.57;;;56.10;;
14187;SDS011;7175;51.978;5.330;2024-01-06T08:05:01;59.90;;;55.50;;
14187;SDS011;7175;51.978;5.330;2024-01-06T08:07:30;59.83;;;55.33;;
14187;SDS011;7175;51.978;5.330;2024-01-06T08:09:58;60.40;;;55.83;;
14187;SDS011;7175;51.978;5.330;2024-01-06T08:12:26;59.27;;;54.77;;
14187;SDS011;7175;51.978;5.330;2024-01-06T08:14:54;60.00;;;55.40;;
14187;SDS011;7175;51.978;5.330;2024-01-06T08:17:22;65.57;;;60.40;;
14187;SDS011;7175;51.978;5.330;2024-01-06T08:19:51;63.55;;;58.45;;
14187;SDS011;7175;51.978;5.330;2024-01-06T08:22:19;59.87;;;54.97;;
14187;SDS011;7175;51.978;5.330;2024-01-06T08:24:52;55.97;;;51.37;;
14187;SDS011;7175;51.978;5.330;2024-01-06T08:27:20;54.43;;;49.93;;
14187;SDS011;7175;51.978;5.330;2024-01-06T08:29:50;47.60;;;43.60;;
14187;SDS011;7175;51.978;5.330;2024-01-06T08:32:18;46.23;;;42.33;;
14187;SDS011;7175;51.978;5.330;2024-01-06T08:34:46;45.77;;;41.87;;
14187;SDS011;7175;51.978;5.330;2024-01-06T08:37:14;43.53;;;39.77;;
14187;SDS011;7175;51.978;5.330;2024-01-06T08:39:42;44.50;;;40.70;;
14187;SDS011;7175;51.978;5.330;2024-01-06T08:42:11;44.70;;;40.90;;
14187;SDS011;7175;51.978;5.330;2024-01-06T08:44:39;48.03;;;44.03;;
14187;SDS011;7175;51.978;5.330;2024-01-06T08:47:07;50.10;;;45.93;;
14187;SDS011;7175;51.978;5.330;2024-01-06T08:49:35;47.63;;;43.53;;
14187;SDS011;7175;51.978;5.330;2024-01-06T08:52:04;47.17;;;43.17;;
14187;SDS011;7175;51.978;5.330;2024-01-06T08:54:32;47.27;;;43.27;;
14187;SDS011;7175;51.978;5.330;2024-01-06T08:57:01;48.07;;;44.00;;
14187;SDS011;7175;51.978;5.330;2024-01-06T08:59:30;48.43;;;44.33;;
14187;SDS011;7175;51.978;5.330;2024-01-06T09:01:58;49.30;;;45.20;;
14187;SDS011;7175;51.978;5.330;2024-01-06T09:04:26;48.20;;;44.20;;
14187;SDS011;7175;51.978;5.330;2024-01-06T09:06:54;45.37;;;41.57;;
14187;SDS011;7175;51.978;5.330;2024-01-06T09:09:22;42.30;;;38.70;;
14187;SDS011;7175;51.978;5.330;2024-01-06T09:11:51;42.67;;;39.07;;
14187;SDS011;7175;51.978;5.330;2024-01-06T09:14:19;41.70;;;38.10;;
14187;SDS011;7175;51.978;5.330;2024-01-06T09:16:49;43.90;;;40.20;;
14187;SDS011;7175;51.978;5.330;2024-01-06T09:19:17;40.37;;;36.97;;
14187;SDS011;7175;51.978;5.330;2024-01-06T09:21:45;40.00;;;36.60;;
14187;SDS011;7175;51.978;5.330;2024-01-06T09:24:13;40.17;;;36.77;;
14187;SDS011;7175;51.978;5.330;2024-01-06T09:26:42;39.60;;;36.20;;
14187;SDS011;7175;51.978;5.330;2024-01-06T09:29:10;37.17;;;33.87;;
14187;SDS011;7175;51.978;5.330;2024-01-06T09:31:38;36.50;;;33.30;;
14187;SDS011;7175;51.978;5.330;2024-01-06T09:34:10;36.30;;;33.10;;
14187;SDS011;7175;51.978;5.330;2024-01-06T09:36:38;35.83;;;32.73;;
14187;SDS011;7175;51.978;5.330;2024-01-06T09:39:07;36.23;;;33.03;;
14187;SDS011;7175;51.978;5.330;2024-01-06T09:41:35;35.07;;;31.97;;
14187;SDS011;7175;51.978;5.330;2024-01-06T09:44:03;33.13;;;30.13;;
14187;SDS011;7175;51.978;5.330;2024-01-06T09:46:32;33.77;;;30.77;;
14187;SDS011;7175;51.978;5.330;2024-01-06T09:49:02;32.93;;;29.93;;
14187;SDS011;7175;51.978;5.330;2024-01-06T09:51:31;32.63;;;29.73;;
14187;SDS011;7175;51.978;5.330;2024-01-06T09:54:04;32.57;;;29.67;;
14187;SDS011;7175;51.978;5.330;2024-01-06T09:56:36;32.17;;;29.27;;
14187;SDS011;7175;51.978;5.330;2024-01-06T09:59:06;34.07;;;31.07;;
14187;SDS011;7175;51.978;5.330;2024-01-06T10:01:34;33.80;;;30.80;;
14187;SDS011;7175;51.978;5.330;2024-01-06T10:04:02;33.10;;;30.20;;
14187;SDS011;7175;51.978;5.330;2024-01-06T10:06:32;33.30;;;30.40;;
14187;SDS011;7175;51.978;5.330;2024-01-06T10:09:00;33.67;;;30.67;;
14187;SDS011;7175;51.978;5.330;2024-01-06T10:11:28;31.90;;;29.00;;
14187;SDS011;7175;51.978;5.330;2024-01-06T10:13:56;33.30;;;30.30;;
14187;SDS011;7175;51.978;5.330;2024-01-06T10:16:24;30.67;;;27.87;;
14187;SDS011;7175;51.978;5.330;2024-01-06T10:18:52;30.73;;;27.93;;
14187;SDS011;7175;51.978;5.330;2024-01-06T10:21:21;29.80;;;27.10;;
14187;SDS011;7175;51.978;5.330;2024-01-06T10:23:51;29.57;;;26.87;;
14187;SDS011;7175;51.978;5.330;2024-01-06T10:26:21;29.90;;;27.20;;
14187;SDS011;7175;51.978;5.330;2024-01-06T10:28:49;29.47;;;26.87;;
14187;SDS011;7175;51.978;5.330;2024-01-06T10:31:17;29.33;;;26.73;;
14187;SDS011;7175;51.978;5.330;2024-01-06T10:33:46;29.03;;;26.43;;
14187;SDS011;7175;51.978;5.330;2024-01-06T10:36:15;29.60;;;27.00;;
14187;SDS011;7175;51.978;5.330;2024-01-06T10:38:44;29.73;;;27.13;;
14187;SDS011;7175;51.978;5.330;2024-01-06T10:41:13;29.70;;;27.10;;
14187;SDS011;7175;51.978;5.330;2024-01-06T10:43:43;29.77;;;27.17;;
14187;SDS011;7175;51.978;5.330;2024-01-06T10:46:13;29.13;;;26.53;;
14187;SDS011;7175;51.978;5.330;2024-01-06T10:48:42;29.07;;;26.47;;
14187;SDS011;7175;51.978;5.330;2024-01-06T10:51:12;28.47;;;25.97;;
14187;SDS011;7175;51.978;5.330;2024-01-06T10:53:42;28.73;;;26.23;;
14187;SDS011;7175;51.978;5.330;2024-01-06T10:56:10;27.73;;;25.23;;
14187;SDS011;7175;51.978;5.330;2024-01-06T10:58:40;29.20;;;26.60;;
14187;SDS011;7175;51.978;5.330;2024-01-06T11:01:14;29.40;;;26.80;;
14187;SDS011;7175;51.978;5.330;2024-01-06T11:03:50;29.63;;;27.03;;
14187;SDS011;7175;51.978;5.330;2024-01-06T11:06:18;28.70;;;26.20;;
14187;SDS011;7175;51.978;5.330;2024-01-06T11:08:48;28.10;;;25.60;;
14187;SDS011;7175;51.978;5.330;2024-01-06T11:11:20;27.70;;;25.30;;
14187;SDS011;7175;51.978;5.330;2024-01-06T11:13:51;27.93;;;25.43;;
14187;SDS011;7175;51.978;5.330;2024-01-06T11:16:35;28.60;;;26.10;;
14187;SDS011;7175;51.978;5.330;2024-01-06T11:19:41;28.60;;;26.10;;
14187;SDS011;7175;51.978;5.330;2024-01-06T11:25:04;27.33;;;24.83;;
14187;SDS011;7175;51.978;5.330;2024-01-06T11:27:34;27.70;;;25.20;;
14187;SDS011;7175;51.978;5.330;2024-01-06T11:30:06;28.07;;;25.57;;
14187;SDS011;7175;51.978;5.330;2024-01-06T11:32:35;27.63;;;25.13;;
14187;SDS011;7175;51.978;5.330;2024-01-06T11:35:06;27.33;;;24.83;;
14187;SDS011;7175;51.978;5.330;2024-01-06T11:37:36;28.70;;;26.10;;
14187;SDS011;7175;51.978;5.330;2024-01-06T11:40:22;29.00;;;26.40;;
14187;SDS011;7175;51.978;5.330;2024-01-06T11:42:56;28.83;;;26.23;;
14187;SDS011;7175;51.978;5.330;2024-01-06T11:45:27;28.73;;;26.13;;
14187;SDS011;7175;51.978;5.330;2024-01-06T11:47:55;29.50;;;26.80;;
14187;SDS011;7175;51.978;5.330;2024-01-06T11:50:25;30.70;;;28.00;;
14187;SDS011;7175;51.978;5.330;2024-01-06T11:52:53;30.20;;;27.50;;
14187;SDS011;7175;51.978;5.330;2024-01-06T11:55:22;31.10;;;28.30;;
14187;SDS011;7175;51.978;5.330;2024-01-06T11:57:54;30.93;;;28.23;;
14187;SDS011;7175;51.978;5.330;2024-01-06T12:00:24;30.63;;;27.93;;
14187;SDS011;7175;51.978;5.330;2024-01-06T12:02:56;33.30;;;30.43;;
14187;SDS011;7175;51.978;5.330;2024-01-06T12:05:25;32.40;;;29.60;;
14187;SDS011;7175;51.978;5.330;2024-01-06T12:07:54;30.30;;;27.60;;
14187;SDS011;7175;51.978;5.330;2024-01-06T12:10:24;28.10;;;25.57;;
14187;SDS011;7175;51.978;5.330;2024-01-06T12:12:59;28.57;;;26.07;;
14187;SDS011;7175;51.978;5.330;2024-01-06T12:15:28;29.40;;;26.80;;
14187;SDS011;7175;51.978;5.330;2024-01-06T12:17:59;29.50;;;26.90;;
14187;SDS011;7175;51.978;5.330;2024-01-06T12:20:30;29.60;;;27.00;;
14187;SDS011;7175;51.978;5.330;2024-01-06T12:22:59;29.73;;;27.13;;
14187;SDS011;7175;51.978;5.330;2024-01-06T12:25:28;29.43;;;26.83;;
14187;SDS011;7175;51.978;5.330;2024-01-06T12:28:05;30.07;;;27.37;;
14187;SDS011;7175;51.978;5.330;2024-01-06T12:30:33;29.53;;;26.90;;
14187;SDS011;7175;51.978;5.330;2024-01-06T12:33:03;30.17;;;27.47;;
14187;SDS011;7175;51.978;5.330;2024-01-06T12:35:32;30.10;;;27.40;;
14187;SDS011;7175;51.978;5.330;2024-01-06T12:38:01;31.60;;;28.80;;
14187;SDS011;7175;51.978;5.330;2024-01-06T12:40:32;31.37;;;28.60;;
14187;SDS011;7175;51.978;5.330;2024-01-06T12:43:03;31.00;;;28.30;;
14187;SDS011;7175;51.978;5.330;2024-01-06T12:45:31;29.20;;;26.60;;
14187;SDS011;7175;51.978;5.330;2024-01-06T12:47:59;30.00;;;27.30;;
14187;SDS011;7175;51.978;5.330;2024-01-06T12:50:29;30.20;;;27.50;;
14187;SDS011;7175;51.978;5.330;2024-01-06T12:52:57;30.37;;;27.67;;
14187;SDS011;7175;51.978;5.330;2024-01-06T12:55:25;30.43;;;27.73;;
14187;SDS011;7175;51.978;5.330;2024-01-06T12:57:53;30.30;;;27.60;;
14187;SDS011;7175;51.978;5.330;2024-01-06T13:00:21;30.27;;;27.57;;
14187;SDS011;7175;51.978;5.330;2024-01-06T13:02:49;29.47;;;26.77;;
14187;SDS011;7175;51.978;5.330;2024-01-06T13:05:18;28.50;;;25.90;;
14187;SDS011;7175;51.978;5.330;2024-01-06T13:07:48;28.70;;;26.10;;
14187;SDS011;7175;51.978;5.330;2024-01-06T13:10:16;28.40;;;25.80;;
14187;SDS011;7175;51.978;5.330;2024-01-06T13:12:46;29.20;;;26.60;;
14187;SDS011;7175;51.978;5.330;2024-01-06T13:15:18;29.77;;;27.07;;
14187;SDS011;7175;51.978;5.330;2024-01-06T13:17:47;30.63;;;27.93;;
14187;SDS011;7175;51.978;5.330;2024-01-06T13:20:18;28.70;;;26.10;;
14187;SDS011;7175;51.978;5.330;2024-01-06T13:22:47;29.97;;;27.27;;
14187;SDS011;7175;51.978;5.330;2024-01-06T13:25:17;31.33;;;28.53;;
14187;SDS011;7175;51.978;5.330;2024-01-06T13:27:46;29.60;;;27.00;;
14187;SDS011;7175;51.978;5.330;2024-01-06T13:30:15;29.40;;;26.73;;
14187;SDS011;7175;51.978;5.330;2024-01-06T13:32:45;31.03;;;28.23;;
14187;SDS011;7175;51.978;5.330;2024-01-06T13:35:15;31.90;;;29.10;;
14187;SDS011;7175;51.978;5.330;2024-01-06T13:37:43;32.73;;;29.83;;
14187;SDS011;7175;51.978;5.330;2024-01-06T13:40:15;32.97;;;30.07;;
14187;SDS011;7175;51.978;5.330;2024-01-06T13:42:46;34.67;;;31.67;;
14187;SDS011;7175;51.978;5.330;2024-01-06T13:45:14;34.87;;;31.87;;
14187;SDS011;7175;51.978;5.330;2024-01-06T13:47:42;33.23;;;30.33;;
14187;SDS011;7175;51.978;5.330;2024-01-06T13:50:12;34.80;;;31.80;;
14187;SDS011;7175;51.978;5.330;2024-01-06T13:52:41;32.67;;;29.77;;
14187;SDS011;7175;51.978;5.330;2024-01-06T13:55:09;33.63;;;30.73;;
14187;SDS011;7175;51.978;5.330;2024-01-06T13:57:39;35.50;;;32.50;;
14187;SDS011;7175;51.978;5.330;2024-01-06T14:00:09;34.23;;;31.30;;
14187;SDS011;7175;51.978;5.330;2024-01-06T14:02:45;34.60;;;31.60;;
14187;SDS011;7175;51.978;5.330;2024-01-06T14:05:14;34.10;;;31.10;;
14187;SDS011;7175;51.978;5.330;2024-01-06T14:07:43;33.80;;;30.90;;
14187;SDS011;7175;51.978;5.330;2024-01-06T14:10:13;34.27;;;31.27;;
14187;SDS011;7175;51.978;5.330;2024-01-06T14:12:43;34.90;;;31.90;;
14187;SDS011;7175;51.978;5.330;2024-01-06T14:15:11;33.60;;;30.70;;
14187;SDS011;7175;51.978;5.330;2024-01-06T14:17:39;32.77;;;29.87;;
14187;SDS011;7175;51.978;5.330;2024-01-06T14:20:08;32.83;;;29.93;;
14187;SDS011;7175;51.978;5.330;2024-01-06T14:22:39;32.53;;;29.70;;
14187;SDS011;7175;51.978;5.330;2024-01-06T14:25:07;32.90;;;30.10;;
14187;SDS011;7175;51.978;5.330;2024-01-06T14:27:35;34.13;;;31.23;;
14187;SDS011;7175;51.978;5.330;2024-01-06T14:30:05;32.70;;;29.90;;
14187;SDS011;7175;51.978;5.330;2024-01-06T14:32:36;34.67;;;31.67;;
14187;SDS011;7175;51.978;5.330;2024-01-06T14:35:05;33.60;;;30.70;;
14187;SDS011;7175;51.978;5.330;2024-01-06T14:37:36;35.50;;;32.40;;
14187;SDS011;7175;51.978;5.330;2024-01-06T14:40:05;35.40;;;32.30;;
14187;SDS011;7175;51.978;5.330;2024-01-06T14:42:34;35.37;;;32.27;;
14187;SDS011;7175;51.978;5.330;2024-01-06T14:45:05;36.63;;;33.53;;
14187;SDS011;7175;51.978;5.330;2024-01-06T14:47:34;35.47;;;32.47;;